Time;durP1;ratioP1;P1;durP2;ratioP2;P2;SDS_P1;SDS_P2;PMS_P1;PMS_P2;Temp;Humidity;BMP_temperature;BMP_pressure;BME280_temperature;BME280_humidity;BME280_pressure;Samples;Min_cycle;Max_cycle;Signal;HPM_P1;HPM_P2
2023/02/27 00:00:57;;;;;;;2.65;1.42;;;10.70;78.90;;;;;;4977520;28;20031;-81
2023/02/27 00:03:22;;;;;;;2.67;1.40;;;10.70;78.90;;;;;;4960014;28;20556;-81
2023/02/27 00:05:48;;;;;;;2.30;1.30;;;10.70;79.40;;;;;;4958842;28;20122;-80
2023/02/27 00:08:13;;;;;;;2.75;1.35;;;10.70;78.80;;;;;;4976464;28;20054;-80
2023/02/27 00:10:39;;;;;;;2.95;1.40;;;10.70;78.90;;;;;;4977202;28;20362;-81
2023/02/27 00:13:05;;;;;;;2.92;1.40;;;10.60;78.70;;;;;;4958962;28;20582;-81
2023/02/27 00:15:31;;;;;;;2.55;1.30;;;10.60;78.90;;;;;;4976745;28;20030;-81
2023/02/27 00:17:58;;;;;;;3.83;1.25;;;10.60;78.70;;;;;;4976825;28;20019;-81
2023/02/27 00:20:24;;;;;;;2.47;1.30;;;10.60;78.80;;;;;;4958768;28;20030;-81
2023/02/27 00:22:50;;;;;;;2.78;1.40;;;10.60;78.80;;;;;;4958399;28;20027;-81
2023/02/27 00:25:16;;;;;;;3.58;1.63;;;10.60;78.80;;;;;;4958453;28;20019;-81
2023/02/27 00:27:42;;;;;;;3.53;1.38;;;10.60;78.80;;;;;;4975979;28;20551;-81
2023/02/27 00:30:11;;;;;;;3.05;1.25;;;10.60;78.80;;;;;;4957793;28;20117;-81
2023/02/27 00:32:36;;;;;;;3.72;1.50;;;10.60;78.80;;;;;;4957648;28;20030;-81
2023/02/27 00:35:07;;;;;;;3.83;1.48;;;10.60;78.80;;;;;;4975225;28;20019;-81
2023/02/27 00:37:33;;;;;;;3.33;1.55;;;10.60;78.90;;;;;;4958206;28;20023;-81
2023/02/27 00:40:00;;;;;;;3.92;1.70;;;10.60;78.80;;;;;;4975492;28;20045;-81
2023/02/27 00:42:27;;;;;;;3.72;1.50;;;10.60;78.90;;;;;;4975788;28;20065;-81
2023/02/27 00:44:52;;;;;;;3.28;1.58;;;10.60;78.90;;;;;;4958410;28;20424;-81
2023/02/27 00:47:18;;;;;;;3.00;1.40;;;10.60;78.90;;;;;;4957674;28;20023;-81
2023/02/27 00:49:43;;;;;;;3.78;1.60;;;10.60;78.80;;;;;;4975211;28;20066;-80
2023/02/27 00:52:09;;;;;;;3.38;1.50;;;10.60;78.80;;;;;;4957860;28;20054;-81
2023/02/27 00:54:34;;;;;;;4.30;1.50;;;10.60;78.90;;;;;;4975415;28;20038;-80
2023/02/27 00:57:00;;;;;;;3.45;1.42;;;10.60;78.80;;;;;;4975436;28;20034;-81
2023/02/27 00:59:25;;;;;;;3.40;1.58;;;10.60;78.80;;;;;;4957184;28;20050;-80
2023/02/27 01:01:51;;;;;;;3.20;1.45;;;10.60;78.90;;;;;;4957007;28;20023;-81
2023/02/27 01:04:16;;;;;;;3.88;1.42;;;10.60;78.80;;;;;;4957377;28;20500;-81
2023/02/27 01:06:42;;;;;;;3.97;1.60;;;10.60;78.90;;;;;;4957703;28;20562;-81
2023/02/27 01:09:07;;;;;;;3.42;1.40;;;10.60;78.90;;;;;;4957664;28;20030;-81
2023/02/27 01:11:33;;;;;;;3.15;1.50;;;10.60;78.80;;;;;;4975053;28;20481;-81
2023/02/27 01:13:58;;;;;;;3.97;1.40;;;10.60;78.90;;;;;;4974557;28;20034;-80
2023/02/27 01:16:24;;;;;;;3.85;1.70;;;10.50;78.90;;;;;;4957283;28;20027;-80
2023/02/27 01:18:49;;;;;;;4.47;1.70;;;10.60;78.90;;;;;;4957344;28;20070;-81
2023/02/27 01:21:15;;;;;;;3.65;1.65;;;10.60;78.80;;;;;;4974628;28;20022;-81
2023/02/27 01:23:41;;;;;;;3.63;1.70;;;10.60;79.00;;;;;;4974426;28;20027;-81
2023/02/27 01:26:06;;;;;;;3.83;1.65;;;10.60;78.90;;;;;;4974456;28;20098;-81
2023/02/27 01:28:32;;;;;;;3.33;1.50;;;10.50;78.80;;;;;;4974138;28;20482;-81
2023/02/27 01:30:57;;;;;;;3.33;1.35;;;10.60;78.90;;;;;;4974313;28;20031;-79
2023/02/27 01:33:23;;;;;;;3.45;1.45;;;10.60;78.90;;;;;;4956917;28;20023;-81
2023/02/27 01:35:48;;;;;;;2.92;1.48;;;10.60;78.90;;;;;;4956783;28;20019;-81
2023/02/27 01:38:14;;;;;;;3.28;1.50;;;10.60;78.90;;;;;;4956365;28;20054;-82
2023/02/27 01:40:41;;;;;;;3.47;1.60;;;10.60;78.90;;;;;;4961286;28;20031;-82
2023/02/27 01:43:13;;;;;;;2.38;1.20;;;10.60;78.90;;;;;;4977955;28;20023;-81
2023/02/27 01:45:40;;;;;;;2.85;1.40;;;10.60;78.80;;;;;;4977448;28;20062;-81
2023/02/27 01:48:17;;;;;;;3.25;1.45;;;10.50;78.80;;;;;;4978190;28;20046;-81
2023/02/27 01:50:50;;;;;;;3.45;1.50;;;10.60;78.90;;;;;;4960733;28;20077;-81
2023/02/27 01:53:19;;;;;;;3.50;1.40;;;10.60;78.90;;;;;;4977604;28;20033;-81
2023/02/27 01:55:46;;;;;;;3.60;1.45;;;10.50;78.90;;;;;;4959512;28;20490;-81
2023/02/27 01:58:13;;;;;;;3.60;1.60;;;10.50;78.90;;;;;;4976904;28;20062;-81
2023/02/27 02:00:39;;;;;;;2.88;1.58;;;10.50;78.90;;;;;;4960317;28;20031;-81
2023/02/27 02:03:19;;;;;;;5.10;1.80;;;10.50;78.90;;;;;;4959452;28;20023;-81
2023/02/27 02:05:45;;;;;;;2.83;1.40;;;10.50;78.80;;;;;;4958874;28;20509;-81
2023/02/27 02:08:15;;;;;;;2.83;1.27;;;10.50;78.90;;;;;;4976163;28;20038;-81
2023/02/27 02:10:41;;;;;;;3.38;1.42;;;10.50;78.80;;;;;;4958970;28;20058;-81
2023/02/27 02:13:08;;;;;;;4.05;1.60;;;10.50;78.80;;;;;;4958716;28;20389;-81
2023/02/27 02:15:40;;;;;;;2.90;1.50;;;10.50;78.90;;;;;;4958219;28;20416;-81
2023/02/27 02:18:31;;;;;;;2.45;1.30;;;10.50;78.90;;;;;;4973627;28;20027;-80
2023/02/27 02:21:05;;;;;;;;;;;10.50;78.90;;;;;;4976730;28;20030;-81
2023/02/27 02:24:10;;;;;;;3.42;1.42;;;10.50;78.90;;;;;;4958686;28;20037;-81
2023/02/27 02:26:56;;;;;;;3.53;1.40;;;10.50;78.80;;;;;;4924948;28;20429;-81
2023/02/27 02:29:36;;;;;;;3.60;1.42;;;10.50;78.90;;;;;;4959828;28;20512;-82
2023/02/27 02:32:07;;;;;;;3.03;1.55;;;10.50;78.80;;;;;;4977004;28;20030;-82
2023/02/27 02:35:09;;;;;;;3.20;1.40;;;10.50;78.80;;;;;;4975117;28;20081;-81
2023/02/27 02:37:57;;;;;;;3.53;1.40;;;10.50;78.80;;;;;;4960828;28;20073;-81
2023/02/27 02:40:45;;;;;;;2.72;1.48;;;10.50;78.80;;;;;;4979606;28;20030;-81
2023/02/27 02:43:18;;;;;;;2.88;1.38;;;10.50;78.80;;;;;;4980082;28;20035;-81
2023/02/27 02:45:51;;;;;;;3.40;1.60;;;10.50;78.80;;;;;;4962227;28;20434;-81
2023/02/27 02:48:43;;;;;;;3.10;1.50;;;10.50;78.80;;;;;;4979918;28;20027;-81
2023/02/27 02:51:37;;;;;;;2.45;1.40;;;10.50;78.80;;;;;;4962551;28;20026;-81
2023/02/27 02:54:05;;;;;;;3.03;1.50;;;10.50;78.90;;;;;;4961773;28;20484;-81
2023/02/27 02:56:35;;;;;;;2.95;1.40;;;10.50;79.00;;;;;;4961967;28;20026;-81
2023/02/27 02:59:40;;;;;;;3.33;1.60;;;10.50;78.90;;;;;;4961522;28;20400;-81
2023/02/27 03:02:12;;;;;;;3.20;1.60;;;10.50;78.90;;;;;;4976046;28;20041;-81
2023/02/27 03:04:43;;;;;;;3.92;1.60;;;10.50;78.80;;;;;;4978831;28;20460;-81
2023/02/27 03:07:12;;;;;;;3.53;1.40;;;10.50;78.80;;;;;;4979224;28;20101;-82
2023/02/27 03:09:45;;;;;;;3.05;1.60;;;10.50;78.90;;;;;;4960750;28;20050;-82
2023/02/27 03:12:15;;;;;;;2.60;1.35;;;10.50;78.80;;;;;;4961117;28;20030;-81
2023/02/27 03:14:47;;;;;;;3.15;1.50;;;10.50;78.80;;;;;;4960677;28;20054;-81
2023/02/27 03:17:23;;;;;;;3.28;1.38;;;10.50;78.70;;;;;;4960955;28;20043;-81
2023/02/27 03:19:53;;;;;;;3.20;1.50;;;10.50;78.70;;;;;;4977994;28;20027;-82
2023/02/27 03:22:25;;;;;;;2.65;1.50;;;10.50;78.80;;;;;;4960570;28;20536;-81
2023/02/27 03:24:54;;;;;;;3.28;1.63;;;10.50;78.70;;;;;;4977567;28;20161;-81
2023/02/27 03:27:21;;;;;;;3.97;1.70;;;10.50;78.80;;;;;;4978008;28;20029;-81
2023/02/27 03:29:52;;;;;;;4.30;1.70;;;10.50;78.70;;;;;;4977663;28;20027;-81
2023/02/27 03:32:26;;;;;;;3.40;1.60;;;10.50;78.70;;;;;;4976961;28;20511;-81
2023/02/27 03:34:52;;;;;;;3.13;1.60;;;10.50;78.70;;;;;;4952070;29;20039;-81
2023/02/27 03:37:51;;;;;;;2.67;1.45;;;10.50;78.70;;;;;;4954467;28;20034;-80
2023/02/27 03:40:24;;;;;;;4.10;1.70;;;10.50;78.70;;;;;;4976152;28;20046;-81
2023/02/27 03:43:12;;;;;;;3.45;1.67;;;10.50;78.80;;;;;;4976339;28;20023;-81
2023/02/27 03:46:08;;;;;;;3.88;1.73;;;10.40;78.70;;;;;;4959206;28;20661;-81
2023/02/27 03:48:34;;;;;;;3.33;1.60;;;10.40;78.80;;;;;;4957315;28;20023;-81
2023/02/27 03:51:00;;;;;;;3.45;1.50;;;10.50;78.80;;;;;;4975886;28;20046;-81
2023/02/27 03:53:44;;;;;;;4.40;2.03;;;10.50;78.80;;;;;;4958446;28;20034;-81
2023/02/27 03:56:12;;;;;;;3.88;1.70;;;10.50;78.80;;;;;;4975990;28;20037;-81
2023/02/27 03:58:38;;;;;;;3.47;1.70;;;10.50;78.70;;;;;;4957911;28;20027;-82
2023/02/27 04:01:03;;;;;;;3.55;1.88;;;10.50;78.70;;;;;;4958308;28;20050;-81
2023/02/27 04:03:33;;;;;;;3.88;1.80;;;10.50;78.70;;;;;;4975934;28;20402;-82
2023/02/27 04:07:21;;;;;;;4.20;2.08;;;10.40;78.70;;;;;;4958856;28;20077;-81
2023/02/27 04:09:16;;;;;;;3.72;1.80;;;10.50;78.80;;;;;;4975907;28;20061;-80
2023/02/27 04:12:12;;;;;;;4.50;2.00;;;10.50;78.70;;;;;;4969799;28;20038;-81
2023/02/27 04:14:52;;;;;;;3.78;1.80;;;10.50;78.70;;;;;;4957788;28;20417;-81
2023/02/27 04:17:24;;;;;;;4.53;2.20;;;10.40;78.70;;;;;;4957883;28;20034;-82
2023/02/27 04:20:12;;;;;;;3.92;1.85;;;10.40;78.60;;;;;;4957312;28;20039;-81
2023/02/27 04:22:50;;;;;;;4.07;1.85;;;10.50;78.70;;;;;;4971595;28;20038;-80
2023/02/27 04:25:22;;;;;;;3.72;1.63;;;10.40;78.70;;;;;;4972626;28;20122;-81
2023/02/27 04:28:07;;;;;;;3.38;1.75;;;10.40;78.70;;;;;;4943346;29;20035;-82
2023/02/27 04:30:47;;;;;;;3.67;1.88;;;10.40;78.80;;;;;;4935271;29;20086;-80
2023/02/27 04:33:50;;;;;;;5.07;2.05;;;10.40;78.60;;;;;;4940250;28;20433;-80
2023/02/27 04:36:19;;;;;;;4.07;2.08;;;10.40;78.70;;;;;;4905824;28;20038;-80
2023/02/27 04:38:48;;;;;;;4.15;1.98;;;10.40;78.70;;;;;;4954188;28;20444;-80
2023/02/27 04:41:24;;;;;;;3.58;1.75;;;10.40;78.70;;;;;;4972319;28;20512;-79
2023/02/27 04:43:52;;;;;;;4.25;1.80;;;10.40;78.60;;;;;;4956352;28;20038;-81
2023/02/27 04:46:24;;;;;;;4.00;1.80;;;10.40;78.70;;;;;;4956064;28;20026;-81
2023/02/27 04:48:55;;;;;;;;;;;10.40;78.60;;;;;;4957031;28;20094;-84
2023/02/27 04:51:25;;;;;;;3.25;1.60;;;10.40;78.60;;;;;;4972339;28;19910;-83
2023/02/27 04:54:09;;;;;;;5.03;2.00;;;10.40;78.70;;;;;;4954517;28;20077;-82
2023/02/27 04:56:39;;;;;;;4.18;1.80;;;10.40;78.60;;;;;;4955349;28;20033;-80
2023/02/27 04:59:14;;;;;;;4.05;1.90;;;10.40;78.70;;;;;;4974357;28;20117;-80
2023/02/27 05:01:45;;;;;;;4.53;2.22;;;10.40;78.60;;;;;;4975523;28;20038;-80
2023/02/27 05:04:14;;;;;;;4.50;2.00;;;10.40;78.60;;;;;;4974660;28;20073;-79
2023/02/27 05:06:43;;;;;;;4.40;1.95;;;10.40;78.50;;;;;;4957443;28;20031;-80
2023/02/27 05:09:19;;;;;;;3.95;1.90;;;10.40;78.50;;;;;;4976637;28;20061;-79
2023/02/27 05:11:57;;;;;;;3.28;1.73;;;10.40;78.50;;;;;;4956033;28;20405;-79
2023/02/27 05:14:35;;;;;;;4.28;2.10;;;10.40;78.60;;;;;;4973593;28;20031;-79
2023/02/27 05:17:27;;;;;;;4.13;1.90;;;10.40;78.40;;;;;;4974480;28;20035;-80
2023/02/27 05:19:53;;;;;;;3.80;2.05;;;10.40;78.50;;;;;;4974438;28;20067;-80
2023/02/27 05:22:28;;;;;;;3.63;2.00;;;10.40;78.50;;;;;;4978388;28;20023;-80
2023/02/27 05:25:14;;;;;;;3.78;2.00;;;10.40;78.50;;;;;;4956746;28;20015;-79
2023/02/27 05:28:12;;;;;;;4.30;1.80;;;10.40;78.30;;;;;;4956069;28;20069;-81
2023/02/27 05:31:13;;;;;;;4.05;2.10;;;10.40;78.00;;;;;;4973845;28;20019;-80
2023/02/27 05:33:56;;;;;;;5.13;1.98;;;10.40;78.10;;;;;;4970035;28;20038;-79
2023/02/27 05:36:35;;;;;;;4.97;2.13;;;10.40;78.10;;;;;;4968716;28;20034;-81
2023/02/27 05:39:08;;;;;;;4.57;2.13;;;10.40;78.20;;;;;;4947489;28;20139;-79
2023/02/27 05:41:48;;;;;;;4.18;2.20;;;10.40;78.20;;;;;;4956922;28;20026;-82
2023/02/27 05:44:26;;;;;;;3.97;2.03;;;10.40;78.20;;;;;;4956402;28;20577;-81
2023/02/27 05:46:56;;;;;;;5.00;2.20;;;10.40;78.30;;;;;;4973072;28;20086;-79
2023/02/27 05:49:41;;;;;;;4.32;2.22;;;10.40;78.30;;;;;;4956328;28;20061;-80
2023/02/27 05:52:11;;;;;;;4.28;2.25;;;10.30;78.20;;;;;;4955707;28;20142;-79
2023/02/27 05:54:46;;;;;;;4.55;2.13;;;10.40;78.20;;;;;;4952390;29;20059;-80
2023/02/27 05:57:15;;;;;;;4.55;2.10;;;10.40;78.30;;;;;;4952483;29;20031;-80
2023/02/27 05:59:54;;;;;;;4.40;2.40;;;10.40;78.30;;;;;;4937041;29;20041;-79
2023/02/27 06:02:19;;;;;;;4.72;2.13;;;10.30;78.30;;;;;;4955631;29;20481;-80
2023/02/27 06:04:45;;;;;;;4.40;2.20;;;10.40;78.40;;;;;;4935496;29;20027;-80
2023/02/27 06:07:13;;;;;;;4.82;2.35;;;10.30;78.20;;;;;;4953435;28;20362;-81
2023/02/27 06:09:39;;;;;;;4.57;2.28;;;10.30;78.20;;;;;;4953224;29;20023;-80
2023/02/27 06:12:05;;;;;;;4.35;2.15;;;10.30;78.20;;;;;;4937799;29;20041;-80
2023/02/27 06:14:30;;;;;;;4.93;2.10;;;10.30;78.30;;;;;;4939437;29;20031;-80
2023/02/27 06:16:56;;;;;;;4.47;2.38;;;10.30;78.30;;;;;;4940870;29;20058;-80
2023/02/27 06:19:21;;;;;;;4.78;2.20;;;10.40;78.40;;;;;;4957432;28;20055;-80
2023/02/27 06:21:47;;;;;;;3.22;2.00;;;10.30;78.30;;;;;;4956675;29;20027;-81
2023/02/27 06:24:12;;;;;;;4.55;2.25;;;10.30;78.20;;;;;;4956866;28;20055;-81
2023/02/27 06:26:38;;;;;;;5.97;2.50;;;10.30;78.90;;;;;;4940288;29;20113;-84
2023/02/27 06:29:04;;;;;;;5.88;2.65;;;10.30;77.90;;;;;;4956671;29;20071;-80
2023/02/27 06:31:29;;;;;;;6.13;2.40;;;10.30;76.60;;;;;;4939522;29;20035;-81
2023/02/27 06:33:55;;;;;;;4.82;2.50;;;10.30;76.70;;;;;;4943097;29;20038;-81
2023/02/27 06:36:21;;;;;;;8.15;2.88;;;10.30;76.70;;;;;;4943958;29;20445;-82
2023/02/27 06:38:47;;;;;;;4.43;2.40;;;10.30;77.40;;;;;;4945155;29;20023;-82
2023/02/27 06:41:13;;;;;;;5.90;2.50;;;10.40;77.30;;;;;;4956862;29;20389;-81
2023/02/27 06:43:38;;;;;;;5.97;2.33;;;10.40;77.30;;;;;;4938946;29;20118;-82
2023/02/27 06:46:04;;;;;;;4.60;2.38;;;10.40;77.20;;;;;;4940186;29;20067;-82
2023/02/27 06:48:29;;;;;;;4.80;2.45;;;10.40;77.30;;;;;;4956308;29;20102;-81
2023/02/27 06:50:55;;;;;;;5.18;2.33;;;10.40;77.50;;;;;;4941731;29;20080;-81
2023/02/27 06:53:22;;;;;;;5.00;2.20;;;10.50;77.50;;;;;;4958354;29;20073;-82
2023/02/27 06:55:48;;;;;;;4.95;2.30;;;10.50;77.40;;;;;;4956933;29;20035;-82
2023/02/27 06:58:14;;;;;;;5.60;2.50;;;10.40;77.50;;;;;;4958890;29;20076;-82
2023/02/27 07:00:40;;;;;;;4.00;2.60;;;10.50;77.50;;;;;;4940407;29;20636;-80
2023/02/27 07:03:06;;;;;;;5.68;2.65;;;10.60;77.60;;;;;;4958401;29;20110;-81
2023/02/27 07:05:31;;;;;;;4.30;2.22;;;10.60;77.50;;;;;;4940533;29;20074;-83
2023/02/27 07:07:57;;;;;;;5.88;2.40;;;10.70;77.60;;;;;;4940813;29;20034;-82
2023/02/27 07:10:23;;;;;;;4.95;2.30;;;10.60;77.40;;;;;;4940317;29;20035;-81
2023/02/27 07:12:48;;;;;;;4.93;2.50;;;10.70;77.40;;;;;;4940205;29;20028;-81
2023/02/27 07:15:14;;;;;;;5.60;2.63;;;10.70;77.30;;;;;;4940268;29;20019;-82
2023/02/27 07:17:39;;;;;;;4.60;2.38;;;10.70;77.20;;;;;;4939789;29;20030;-82
2023/02/27 07:20:07;;;;;;;4.15;2.10;;;10.80;77.20;;;;;;4938828;29;20031;-82
2023/02/27 07:22:33;;;;;;;5.38;2.40;;;10.80;77.10;;;;;;4938921;29;20027;-81
2023/02/27 07:24:59;;;;;;;4.20;2.17;;;10.80;76.90;;;;;;4956283;29;20556;-82
2023/02/27 07:27:24;;;;;;;4.57;2.50;;;10.90;76.90;;;;;;4956211;29;20030;-82
2023/02/27 07:29:50;;;;;;;4.05;2.33;;;10.90;76.80;;;;;;4939465;29;20082;-81
2023/02/27 07:32:16;;;;;;;5.28;2.80;;;10.90;76.80;;;;;;4956660;29;20058;-82
2023/02/27 07:34:42;;;;;;;4.35;2.40;;;11.00;76.70;;;;;;4939491;29;20034;-82
2023/02/27 07:37:07;;;;;;;5.53;2.70;;;11.00;76.60;;;;;;4956552;29;20035;-81
2023/02/27 07:39:33;;;;;;;3.80;2.10;;;11.00;76.60;;;;;;4956356;29;20035;-82
2023/02/27 07:41:59;;;;;;;4.35;2.40;;;11.10;76.60;;;;;;4939089;29;20028;-81
2023/02/27 07:44:24;;;;;;;3.75;2.10;;;11.10;76.50;;;;;;4955209;28;20082;-83
2023/02/27 07:46:49;;;;;;;3.58;2.00;;;11.10;76.50;;;;;;4975560;28;20023;-81
2023/02/27 07:49:15;;;;;;;3.85;1.88;;;11.20;76.70;;;;;;4956492;28;20441;-82
2023/02/27 07:51:41;;;;;;;4.15;2.38;;;11.20;76.90;;;;;;4957553;28;20310;-82
2023/02/27 07:54:06;;;;;;;5.30;2.45;;;11.20;76.80;;;;;;4956457;28;20034;-82
2023/02/27 07:56:32;;;;;;;4.30;2.03;;;11.20;76.80;;;;;;4974936;28;20035;-81
2023/02/27 07:58:57;;;;;;;4.53;2.30;;;11.20;76.70;;;;;;4957415;28;20159;-81
2023/02/27 08:01:23;;;;;;;5.95;2.50;;;11.20;76.40;;;;;;4956996;28;20382;-82
2023/02/27 08:03:48;;;;;;;3.97;2.25;;;11.20;76.40;;;;;;4957326;28;20026;-81
2023/02/27 08:06:14;;;;;;;4.38;2.22;;;11.20;76.40;;;;;;4974479;28;20027;-82
2023/02/27 08:08:39;;;;;;;4.55;2.33;;;11.20;76.50;;;;;;4957090;28;20402;-81
2023/02/27 08:11:05;;;;;;;4.35;2.25;;;11.10;77.00;;;;;;4974524;28;20037;-82
2023/02/27 08:13:30;;;;;;;4.70;2.35;;;11.10;76.50;;;;;;4956992;28;20038;-81
2023/02/27 08:15:56;;;;;;;4.53;2.30;;;11.10;76.50;;;;;;4974085;28;20037;-82
2023/02/27 08:18:22;;;;;;;3.95;2.30;;;11.20;76.40;;;;;;4958930;28;20019;-82
2023/02/27 08:20:47;;;;;;;4.28;2.20;;;11.20;76.40;;;;;;4962219;28;20025;-82
2023/02/27 08:23:13;;;;;;;3.75;2.05;;;11.30;76.50;;;;;;4961342;28;20045;-82
2023/02/27 08:25:39;;;;;;;4.18;2.10;;;11.30;76.50;;;;;;4978533;28;20034;-82
2023/02/27 08:28:04;;;;;;;4.13;2.30;;;11.40;76.50;;;;;;4961020;28;20039;-82
2023/02/27 08:30:30;;;;;;;4.55;2.55;;;11.40;76.50;;;;;;4961702;28;20025;-82
2023/02/27 08:32:55;;;;;;;4.20;2.50;;;11.50;76.50;;;;;;4961349;28;20541;-82
2023/02/27 08:35:21;;;;;;;4.35;2.17;;;11.50;76.40;;;;;;4960531;28;20066;-82
2023/02/27 08:37:48;;;;;;;4.35;2.55;;;11.50;76.00;;;;;;4960621;28;20023;-81
2023/02/27 08:40:14;;;;;;;4.63;2.28;;;11.60;76.00;;;;;;4977568;28;20166;-81
2023/02/27 08:42:40;;;;;;;4.05;2.30;;;11.60;75.90;;;;;;4977374;28;20505;-82
2023/02/27 08:45:06;;;;;;;4.00;2.35;;;11.60;75.80;;;;;;4959360;28;20023;-82
2023/02/27 08:47:31;;;;;;;4.85;2.70;;;11.70;75.70;;;;;;4959550;28;20027;-82
2023/02/27 08:49:57;;;;;;;5.05;2.55;;;11.70;75.40;;;;;;4959120;28;20077;-82
2023/02/27 08:52:22;;;;;;;4.82;2.33;;;11.70;75.30;;;;;;4959189;28;20031;-82
2023/02/27 08:54:48;;;;;;;4.88;2.40;;;11.80;75.40;;;;;;4958269;28;20527;-82
2023/02/27 08:57:13;;;;;;;6.18;2.65;;;11.80;75.40;;;;;;4976344;28;20052;-82
2023/02/27 08:59:39;;;;;;;5.20;2.63;;;11.80;75.30;;;;;;4976108;28;20105;-82
2023/02/27 09:02:05;;;;;;;4.03;2.28;;;11.90;75.40;;;;;;4975573;28;20366;-81
2023/02/27 09:04:30;;;;;;;4.80;2.60;;;11.90;75.10;;;;;;4958319;28;20030;-82
2023/02/27 09:06:56;;;;;;;3.95;2.15;;;11.90;75.10;;;;;;4977307;28;20033;-83
2023/02/27 09:09:26;;;;;;;4.60;2.22;;;11.90;75.30;;;;;;4960321;28;20026;-83
2023/02/27 09:11:51;;;;;;;4.32;2.30;;;11.90;75.10;;;;;;4960550;28;20023;-82
2023/02/27 09:14:17;;;;;;;4.82;2.70;;;12.00;75.10;;;;;;4959616;28;20042;-83
2023/02/27 09:16:43;;;;;;;4.50;2.70;;;12.00;74.70;;;;;;4960054;28;20027;-82
2023/02/27 09:19:09;;;;;;;4.38;2.42;;;12.00;74.90;;;;;;4959513;28;20097;-82
2023/02/27 09:21:36;;;;;;;7.13;2.58;;;12.00;75.20;;;;;;4960162;28;20019;-82
2023/02/27 09:24:03;;;;;;;4.22;2.40;;;12.10;75.00;;;;;;4959519;28;20481;-82
2023/02/27 09:26:28;;;;;;;4.80;2.63;;;12.10;74.50;;;;;;4976962;28;20513;-82
2023/02/27 09:28:54;;;;;;;4.22;2.40;;;12.10;75.20;;;;;;4959891;28;20030;-82
2023/02/27 09:31:19;;;;;;;3.95;2.40;;;12.10;74.50;;;;;;4959120;28;20022;-82
2023/02/27 09:33:45;;;;;;;5.20;2.30;;;12.10;75.20;;;;;;4958821;28;20069;-82
2023/02/27 09:36:10;;;;;;;4.47;2.63;;;12.10;74.90;;;;;;4958477;28;20114;-82
2023/02/27 09:38:37;;;;;;;3.85;2.03;;;12.20;75.00;;;;;;4976415;28;20038;-82
2023/02/27 09:41:04;;;;;;;3.83;2.45;;;12.20;75.30;;;;;;4959495;28;20033;-82
2023/02/27 09:43:44;;;;;;;4.50;2.42;;;12.20;74.60;;;;;;4958495;28;20027;-82
2023/02/27 09:46:16;;;;;;;4.63;2.42;;;12.20;74.70;;;;;;4976543;28;20034;-82
2023/02/27 09:48:49;;;;;;;5.40;2.67;;;12.20;74.80;;;;;;4962233;28;20031;-82
2023/02/27 09:51:16;;;;;;;4.43;2.30;;;12.20;74.90;;;;;;4962474;28;20030;-81
2023/02/27 09:53:46;;;;;;;4.60;2.50;;;12.30;75.00;;;;;;4978750;28;20031;-82
2023/02/27 09:56:24;;;;;;;4.75;2.53;;;12.30;74.90;;;;;;4961773;28;20033;-82
2023/02/27 09:59:23;;;;;;;4.68;2.53;;;12.30;74.70;;;;;;4979417;28;20110;-82
2023/02/27 10:02:04;;;;;;;4.70;2.58;;;12.30;75.10;;;;;;4960923;28;20022;-82
2023/02/27 10:04:35;;;;;;;4.22;2.25;;;12.30;74.80;;;;;;4978273;28;20384;-82
2023/02/27 10:07:06;;;;;;;4.80;2.50;;;12.30;74.80;;;;;;4961239;28;20026;-82
2023/02/27 10:09:44;;;;;;;4.38;2.22;;;12.30;75.20;;;;;;4960980;28;20026;-82
2023/02/27 10:12:25;;;;;;;4.60;2.38;;;12.40;75.30;;;;;;4978877;28;20054;-82
2023/02/27 10:14:56;;;;;;;5.00;2.60;;;12.40;75.10;;;;;;4960577;28;20037;-81
2023/02/27 10:17:36;;;;;;;3.97;2.30;;;12.40;74.80;;;;;;4961217;28;20126;-82
2023/02/27 10:20:08;;;;;;;3.67;2.20;;;12.40;75.20;;;;;;4960475;28;20114;-82
2023/02/27 10:22:37;;;;;;;3.47;2.13;;;12.40;74.60;;;;;;4960520;28;20485;-82
2023/02/27 10:25:16;;;;;;;3.47;2.20;;;12.40;74.30;;;;;;4960311;28;20113;-82
2023/02/27 10:27:48;;;;;;;4.00;2.42;;;12.40;73.90;;;;;;4960319;28;20067;-82
2023/02/27 10:30:21;;;;;;;3.85;2.20;;;12.40;74.00;;;;;;4977484;28;20031;-82
2023/02/27 10:32:50;;;;;;;4.72;2.50;;;12.40;73.80;;;;;;4959786;28;20039;-82
2023/02/27 10:35:27;;;;;;;4.82;2.50;;;12.50;74.10;;;;;;4976760;28;20035;-82
2023/02/27 10:38:10;;;;;;;4.03;2.30;;;12.50;74.50;;;;;;4959496;28;20098;-82
2023/02/27 10:40:39;;;;;;;3.83;2.15;;;12.50;74.20;;;;;;4976928;28;20515;-81
2023/02/27 10:43:05;;;;;;;3.78;2.20;;;12.50;75.00;;;;;;4959664;28;20026;-82
2023/02/27 10:45:32;;;;;;;4.28;2.17;;;12.50;74.70;;;;;;4959411;28;20027;-82
2023/02/27 10:47:57;;;;;;;4.55;2.40;;;12.50;74.70;;;;;;4959693;28;20019;-82
2023/02/27 10:50:27;;;;;;;3.90;2.25;;;12.60;75.00;;;;;;4959343;28;20396;-82
2023/02/27 10:52:56;;;;;;;3.72;2.30;;;12.60;75.20;;;;;;4976755;28;20512;-82
2023/02/27 10:55:28;;;;;;;5.05;2.40;;;12.60;75.10;;;;;;4958737;28;20027;-82
2023/02/27 10:57:56;;;;;;;4.25;2.17;;;12.60;74.90;;;;;;4958500;28;20023;-81
2023/02/27 11:00:29;;;;;;;3.65;2.20;;;12.60;73.80;;;;;;4958357;28;20027;-82
2023/02/27 11:02:54;;;;;;;4.07;2.00;;;12.60;73.70;;;;;;4958340;28;20093;-81
2023/02/27 11:05:35;;;;;;;3.95;2.30;;;12.60;74.20;;;;;;4958431;28;20500;-81
2023/02/27 11:08:27;;;;;;;3.65;2.30;;;12.60;73.60;;;;;;4975600;28;20512;-82
2023/02/27 11:11:03;;;;;;;3.22;2.00;;;12.60;73.50;;;;;;4958613;28;20473;-82
2023/02/27 11:13:32;;;;;;;4.22;2.17;;;12.70;73.70;;;;;;4958073;28;20023;-81
2023/02/27 11:16:14;;;;;;;3.70;2.20;;;12.60;73.80;;;;;;4958323;28;20501;-81
2023/02/27 11:18:45;;;;;;;4.20;2.47;;;12.60;73.60;;;;;;4975885;28;20027;-81
2023/02/27 11:21:13;;;;;;;4.22;2.30;;;12.60;73.80;;;;;;4975407;28;20113;-82
2023/02/27 11:24:01;;;;;;;3.63;2.00;;;12.60;73.80;;;;;;4958070;28;20081;-82
2023/02/27 11:26:29;;;;;;;3.67;2.05;;;12.60;73.90;;;;;;4958234;28;20019;-81
2023/02/27 11:29:17;;;;;;;4.15;2.17;;;12.50;74.20;;;;;;4957843;28;20062;-81
2023/02/27 11:32:08;;;;;;;3.90;2.10;;;12.50;74.00;;;;;;4957988;28;20034;-81
2023/02/27 11:34:46;;;;;;;3.35;2.10;;;12.50;73.90;;;;;;4974944;28;20555;-82
2023/02/27 11:37:29;;;;;;;2.92;1.90;;;12.50;75.10;;;;;;4975007;28;20118;-82
2023/02/27 11:40:07;;;;;;;4.32;2.13;;;12.60;74.30;;;;;;4961919;28;20038;-82
2023/02/27 11:42:36;;;;;;;3.78;2.13;;;12.60;75.70;;;;;;4962761;28;20022;-83
2023/02/27 11:45:30;;;;;;;4.40;2.30;;;12.60;75.90;;;;;;4962454;28;20027;-82
2023/02/27 11:48:07;;;;;;;4.07;2.20;;;12.70;76.80;;;;;;4962169;28;20053;-82
2023/02/27 11:50:45;;;;;;;3.95;2.25;;;12.70;76.80;;;;;;4978918;28;20038;-82
2023/02/27 11:53:26;;;;;;;3.55;1.90;;;12.70;75.90;;;;;;4979326;28;20514;-82
2023/02/27 11:55:55;;;;;;;3.05;1.88;;;12.70;75.80;;;;;;4961414;28;20038;-82
2023/02/27 11:58:23;;;;;;;3.92;1.85;;;12.70;75.30;;;;;;4961199;28;20404;-82
2023/02/27 12:00:53;;;;;;;3.88;2.28;;;12.70;75.30;;;;;;4977949;28;20397;-82
2023/02/27 12:03:43;;;;;;;3.63;2.10;;;12.70;73.90;;;;;;4961142;28;20058;-81
2023/02/27 12:06:34;;;;;;;5.20;2.28;;;12.70;74.60;;;;;;4958216;28;20022;-82
2023/02/27 12:09:04;;;;;;;3.50;1.90;;;12.60;74.40;;;;;;4973906;28;20042;-82
2023/02/27 12:11:35;;;;;;;3.72;2.20;;;12.50;74.30;;;;;;4976298;28;20019;-82
2023/02/27 12:14:04;;;;;;;;;;;12.50;74.40;;;;;;4960470;28;20038;-82
2023/02/27 12:16:35;;;;;;;2.85;1.67;;;12.40;74.20;;;;;;4959645;28;19906;-81
2023/02/27 12:19:11;;;;;;;3.25;2.08;;;12.40;74.10;;;;;;4959826;28;20041;-82
2023/02/27 12:21:41;;;;;;;3.42;1.83;;;12.50;74.20;;;;;;4977065;28;20027;-82
2023/02/27 12:24:29;;;;;;;3.47;1.90;;;12.40;74.10;;;;;;4959427;28;20027;-81
2023/02/27 12:27:22;;;;;;;3.38;2.00;;;12.50;74.20;;;;;;4959275;28;20408;-83
2023/02/27 12:30:01;;;;;;;3.55;1.73;;;12.50;74.60;;;;;;4978630;28;20030;-83
2023/02/27 12:32:52;;;;;;;3.53;2.08;;;12.50;74.90;;;;;;4962325;28;20177;-80
2023/02/27 12:35:31;;;;;;;3.15;1.85;;;12.50;74.60;;;;;;4978281;28;20371;-81
2023/02/27 12:37:57;;;;;;;3.15;1.85;;;12.60;74.40;;;;;;4978378;28;20110;-81
2023/02/27 12:40:33;;;;;;;2.95;1.73;;;12.50;74.30;;;;;;4978662;28;20073;-81
2023/02/27 12:43:10;;;;;;;3.67;1.90;;;12.60;74.30;;;;;;4977995;28;20023;-81
2023/02/27 12:46:13;;;;;;;3.05;1.83;;;12.60;74.50;;;;;;4960163;28;20022;-80
2023/02/27 12:48:54;;;;;;;3.28;1.83;;;12.50;74.50;;;;;;4977220;28;20034;-81
2023/02/27 12:51:46;;;;;;;2.92;1.80;;;12.50;74.30;;;;;;4958359;28;20030;-80
2023/02/27 12:54:25;;;;;;;3.30;1.77;;;12.50;74.30;;;;;;4973631;28;20023;-80
2023/02/27 12:56:53;;;;;;;3.83;2.00;;;12.40;74.50;;;;;;4975507;28;20031;-80
2023/02/27 12:59:28;;;;;;;3.65;1.70;;;12.50;74.30;;;;;;4975125;28;20023;-80
2023/02/27 13:02:08;;;;;;;3.10;1.70;;;12.50;74.20;;;;;;4955931;28;20033;-79
2023/02/27 13:04:46;;;;;;;2.85;1.67;;;12.50;74.20;;;;;;4976052;28;20478;-81
2023/02/27 13:07:45;;;;;;;2.95;1.77;;;12.50;74.20;;;;;;4958816;28;20031;-81
2023/02/27 13:10:41;;;;;;;3.45;1.70;;;12.40;74.30;;;;;;4948339;28;20612;-81
2023/02/27 13:13:27;;;;;;;3.45;1.90;;;12.40;74.40;;;;;;4958742;28;20032;-81